sensor_id;sensor_type;location;lat;lon;timestamp;pressure;altitude;pressure_sealevel;temperature;humidity
44359;BME280;30077;52.474;13.326;2023-02-13T00:04:48;103073.31;;;7.60;100.00
44359;BME280;30077;52.474;13.326;2023-02-13T00:09:51;103073.25;;;7.54;100.00
44359;BME280;30077;52.474;13.326;2023-02-13T00:15:15;103067.84;;;7.39;100.00
44359;BME280;30077;52.474;13.326;2023-02-13T00:20:15;103066.03;;;7.32;100.00
44359;BME280;30077;52.474;13.326;2023-02-13T00:25:15;103064.25;;;7.28;100.00
44359;BME280;30077;52.474;13.326;2023-02-13T00:30:15;103065.97;;;7.26;100.00
44359;BME280;30077;52.474;13.326;2023-02-13T00:35:15;103061.63;;;7.31;100.00
44359;BME280;30077;52.474;13.326;2023-02-13T00:40:16;103068.66;;;7.29;100.00
44359;BME280;30077;52.474;13.326;2023-02-13T00:45:16;103076.56;;;7.22;100.00
44359;BME280;30077;52.474;13.326;2023-02-13T00:50:16;103076.53;;;7.13;100.00
44359;BME280;30077;52.474;13.326;2023-02-13T00:55:16;103054.38;;;7.11;100.00
44359;BME280;30077;52.474;13.326;2023-02-13T01:00:16;103056.94;;;6.99;100.00
44359;BME280;30077;52.474;13.326;2023-02-13T01:05:17;103053.50;;;7.09;100.00
44359;BME280;30077;52.474;13.326;2023-02-13T01:10:17;103067.66;;;7.08;100.00
44359;BME280;30077;52.474;13.326;2023-02-13T01:15:17;103063.22;;;7.09;100.00
44359;BME280;30077;52.474;13.326;2023-02-13T01:20:17;103065.06;;;7.16;100.00
44359;BME280;30077;52.474;13.326;2023-02-13T01:25:18;103068.56;;;7.12;100.00
44359;BME280;30077;52.474;13.326;2023-02-13T01:30:18;103070.31;;;7.14;100.00
44359;BME280;30077;52.474;13.326;2023-02-13T01:35:18;103063.28;;;7.16;100.00
44359;BME280;30077;52.474;13.326;2023-02-13T01:40:18;103058.81;;;7.14;100.00
44359;BME280;30077;52.474;13.326;2023-02-13T01:45:29;103053.50;;;7.11;100.00
44359;BME280;30077;52.474;13.326;2023-02-13T01:50:39;103064.09;;;7.09;100.00
44359;BME280;30077;52.474;13.326;2023-02-13T01:56:16;103060.50;;;7.04;100.00
44359;BME280;30077;52.474;13.326;2023-02-13T02:01:08;103060.50;;;7.04;100.00
44359;BME280;30077;52.474;13.326;2023-02-13T02:06:13;103062.31;;;7.05;100.00
44359;BME280;30077;52.474;13.326;2023-02-13T02:11:17;103058.78;;;7.06;100.00
44359;BME280;30077;52.474;13.326;2023-02-13T02:16:21;103060.50;;;7.03;100.00
44359;BME280;30077;52.474;13.326;2023-02-13T02:42:15;103063.97;;;6.91;100.00
44359;BME280;30077;52.474;13.326;2023-02-13T02:47:30;103064.81;;;6.88;100.00
44359;BME280;30077;52.474;13.326;2023-02-13T02:52:56;103074.47;;;6.82;100.00
44359;BME280;30077;52.474;13.326;2023-02-13T02:58:01;103068.31;;;6.84;100.00
44359;BME280;30077;52.474;13.326;2023-02-13T03:03:22;103062.09;;;6.82;100.00
44359;BME280;30077;52.474;13.326;2023-02-13T03:08:43;103061.22;;;6.80;100.00
44359;BME280;30077;52.474;13.326;2023-02-13T03:14:03;103066.50;;;6.77;100.00
44359;BME280;30077;52.474;13.326;2023-02-13T03:19:11;103070.94;;;6.81;100.00
44359;BME280;30077;52.474;13.326;2023-02-13T03:24:34;103070.91;;;6.77;100.00
44359;BME280;30077;52.474;13.326;2023-02-13T03:35:18;103072.69;;;6.76;100.00
44359;BME280;30077;52.474;13.326;2023-02-13T03:40:43;103076.19;;;6.73;100.00
44359;BME280;30077;52.474;13.326;2023-02-13T03:46:06;103062.00;;;6.71;100.00
44359;BME280;30077;52.474;13.326;2023-02-13T03:51:06;103064.69;;;6.73;100.00
44359;BME280;30077;52.474;13.326;2023-02-13T03:56:08;103062.03;;;6.73;100.00
44359;BME280;30077;52.474;13.326;2023-02-13T04:01:29;103056.69;;;6.71;100.00
44359;BME280;30077;52.474;13.326;2023-02-13T04:06:31;103050.50;;;6.69;100.00
44359;BME280;30077;52.474;13.326;2023-02-13T04:11:38;103047.00;;;6.72;100.00
44359;BME280;30077;52.474;13.326;2023-02-13T04:16:43;103044.34;;;6.72;100.00
44359;BME280;30077;52.474;13.326;2023-02-13T04:21:47;103052.28;;;6.69;100.00
44359;BME280;30077;52.474;13.326;2023-02-13T04:26:48;103053.19;;;6.72;100.00
44359;BME280;30077;52.474;13.326;2023-02-13T04:31:48;103047.81;;;6.66;100.00
44359;BME280;30077;52.474;13.326;2023-02-13T04:36:48;103047.78;;;6.63;100.00
44359;BME280;30077;52.474;13.326;2023-02-13T04:41:49;103042.47;;;6.62;100.00
44359;BME280;30077;52.474;13.326;2023-02-13T04:46:49;103033.59;;;6.60;100.00
44359;BME280;30077;52.474;13.326;2023-02-13T04:51:49;103036.28;;;6.63;100.00
44359;BME280;30077;52.474;13.326;2023-02-13T04:56:50;103033.63;;;6.61;100.00
44359;BME280;30077;52.474;13.326;2023-02-13T05:01:50;103038.94;;;6.64;100.00
44359;BME280;30077;52.474;13.326;2023-02-13T05:06:50;103035.47;;;6.68;100.00
44359;BME280;30077;52.474;13.326;2023-02-13T05:11:51;103046.97;;;6.69;100.00
44359;BME280;30077;52.474;13.326;2023-02-13T05:16:51;103042.56;;;6.72;100.00
44359;BME280;30077;52.474;13.326;2023-02-13T05:21:52;103047.84;;;6.69;100.00
44359;BME280;30077;52.474;13.326;2023-02-13T05:27:10;103051.34;;;6.67;100.00
44359;BME280;30077;52.474;13.326;2023-02-13T05:32:12;103044.28;;;6.67;100.00
44359;BME280;30077;52.474;13.326;2023-02-13T05:37:12;103049.59;;;6.67;100.00
44359;BME280;30077;52.474;13.326;2023-02-13T05:42:12;103046.94;;;6.66;100.00
44359;BME280;30077;52.474;13.326;2023-02-13T05:47:13;103051.34;;;6.65;100.00
44359;BME280;30077;52.474;13.326;2023-02-13T05:52:13;103055.78;;;6.66;100.00
44359;BME280;30077;52.474;13.326;2023-02-13T05:57:13;103058.47;;;6.69;100.00
44359;BME280;30077;52.474;13.326;2023-02-13T06:02:13;103070.81;;;6.67;100.00
44359;BME280;30077;52.474;13.326;2023-02-13T06:07:13;103069.94;;;6.71;100.00
44359;BME280;30077;52.474;13.326;2023-02-13T06:12:14;103081.47;;;6.73;100.00
44359;BME280;30077;52.474;13.326;2023-02-13T06:17:14;103070.88;;;6.73;100.00
44359;BME280;30077;52.474;13.326;2023-02-13T06:22:14;103074.44;;;6.75;100.00
44359;BME280;30077;52.474;13.326;2023-02-13T06:27:14;103070.91;;;6.77;100.00
44359;BME280;30077;52.474;13.326;2023-02-13T06:32:15;103080.59;;;6.73;100.00
44359;BME280;30077;52.474;13.326;2023-02-13T06:37:15;103081.44;;;6.70;100.00
44359;BME280;30077;52.474;13.326;2023-02-13T06:42:15;103078.84;;;6.72;100.00
44359;BME280;30077;52.474;13.326;2023-02-13T06:47:17;103088.56;;;6.73;100.00
44359;BME280;30077;52.474;13.326;2023-02-13T06:52:18;103099.22;;;6.78;100.00
44359;BME280;30077;52.474;13.326;2023-02-13T06:57:18;103092.16;;;6.80;100.00
44359;BME280;30077;52.474;13.326;2023-02-13T07:02:18;103093.97;;;6.84;100.00
44359;BME280;30077;52.474;13.326;2023-02-13T07:07:18;103097.50;;;6.86;100.00
44359;BME280;30077;52.474;13.326;2023-02-13T07:12:18;103095.78;;;6.88;100.00
44359;BME280;30077;52.474;13.326;2023-02-13T07:17:19;103099.31;;;6.90;100.00
44359;BME280;30077;52.474;13.326;2023-02-13T07:22:19;103108.22;;;6.95;100.00
44359;BME280;30077;52.474;13.326;2023-02-13T07:27:19;103105.63;;;7.01;100.00
44359;BME280;30077;52.474;13.326;2023-02-13T07:32:19;103113.59;;;7.04;100.00
44359;BME280;30077;52.474;13.326;2023-02-13T07:37:20;103110.13;;;7.08;100.00
44359;BME280;30077;52.474;13.326;2023-02-13T07:42:20;103104.81;;;7.11;100.00
44359;BME280;30077;52.474;13.326;2023-02-13T07:47:20;103113.66;;;7.10;100.00
44359;BME280;30077;52.474;13.326;2023-02-13T07:52:20;103116.34;;;7.13;100.00
44359;BME280;30077;52.474;13.326;2023-02-13T07:57:20;103116.38;;;7.16;100.00
44359;BME280;30077;52.474;13.326;2023-02-13T08:02:20;103125.22;;;7.17;100.00
44359;BME280;30077;52.474;13.326;2023-02-13T08:07:21;103124.38;;;7.22;100.00
44359;BME280;30077;52.474;13.326;2023-02-13T08:12:21;103120.81;;;7.20;100.00
44359;BME280;30077;52.474;13.326;2023-02-13T08:17:21;103126.16;;;7.23;100.00
44359;BME280;30077;52.474;13.326;2023-02-13T08:22:21;103127.09;;;7.29;100.00
44359;BME280;30077;52.474;13.326;2023-02-13T08:27:21;103127.09;;;7.33;100.00
44359;BME280;30077;52.474;13.326;2023-02-13T08:32:23;103133.38;;;7.40;100.00
44359;BME280;30077;52.474;13.326;2023-02-13T08:37:23;103128.97;;;7.43;100.00
44359;BME280;30077;52.474;13.326;2023-02-13T08:42:24;103135.16;;;7.44;100.00
44359;BME280;30077;52.474;13.326;2023-02-13T08:47:24;103126.38;;;7.48;100.00
44359;BME280;30077;52.474;13.326;2023-02-13T08:52:24;103126.44;;;7.62;100.00
44359;BME280;30077;52.474;13.326;2023-02-13T08:57:24;103128.31;;;7.74;100.00
44359;BME280;30077;52.474;13.326;2023-02-13T09:02:24;103123.03;;;7.83;100.00
44359;BME280;30077;52.474;13.326;2023-02-13T09:07:24;103123.94;;;7.89;100.00
44359;BME280;30077;52.474;13.326;2023-02-13T09:12:25;103130.19;;;7.96;100.00
44359;BME280;30077;52.474;13.326;2023-02-13T09:17:25;103131.94;;;7.91;100.00
44359;BME280;30077;52.474;13.326;2023-02-13T09:22:25;103140.84;;;7.99;100.00
44359;BME280;30077;52.474;13.326;2023-02-13T09:27:27;103139.13;;;8.07;100.00
44359;BME280;30077;52.474;13.326;2023-02-13T09:32:28;103148.84;;;8.04;100.00
44359;BME280;30077;52.474;13.326;2023-02-13T09:37:29;103149.72;;;8.04;100.00
44359;BME280;30077;52.474;13.326;2023-02-13T09:42:30;103154.19;;;8.07;100.00
44359;BME280;30077;52.474;13.326;2023-02-13T09:47:35;103158.59;;;8.03;100.00
44359;BME280;30077;52.474;13.326;2023-02-13T09:52:36;103155.09;;;8.10;100.00
44359;BME280;30077;52.474;13.326;2023-02-13T09:57:39;103144.38;;;7.98;100.00
44359;BME280;30077;52.474;13.326;2023-02-13T10:13:03;103135.69;;;8.36;100.00
44359;BME280;30077;52.474;13.326;2023-02-13T10:18:26;103137.47;;;8.37;100.00
44359;BME280;30077;52.474;13.326;2023-02-13T10:23:40;103142.72;;;8.28;100.00
44359;BME280;30077;52.474;13.326;2023-02-13T10:28:44;103133.91;;;8.35;100.00
44359;BME280;30077;52.474;13.326;2023-02-13T10:33:48;103137.47;;;8.37;100.00
44359;BME280;30077;52.474;13.326;2023-02-13T10:39:11;103136.53;;;8.21;100.00
44359;BME280;30077;52.474;13.326;2023-02-13T11:00:04;103126.56;;;7.79;100.00
44359;BME280;30077;52.474;13.326;2023-02-13T11:05:21;103109.81;;;7.96;100.00
44359;BME280;30077;52.474;13.326;2023-02-13T11:10:23;103109.94;;;8.21;100.00
44359;BME280;30077;52.474;13.326;2023-02-13T11:20:28;103111.84;;;8.60;100.00
44359;BME280;30077;52.474;13.326;2023-02-13T11:25:30;103116.31;;;8.72;100.00
44359;BME280;30077;52.474;13.326;2023-02-13T11:30:34;103102.97;;;8.58;100.00
44359;BME280;30077;52.474;13.326;2023-02-13T11:35:35;103097.63;;;8.48;100.00
44359;BME280;30077;52.474;13.326;2023-02-13T11:40:36;103101.03;;;8.11;100.00
44359;BME280;30077;52.474;13.326;2023-02-13T11:45:38;103084.19;;;8.15;100.00
44359;BME280;30077;52.474;13.326;2023-02-13T11:50:38;103093.19;;;8.39;100.00
44359;BME280;30077;52.474;13.326;2023-02-13T11:55:39;103092.28;;;8.41;100.00
44359;BME280;30077;52.474;13.326;2023-02-13T12:00:40;103089.63;;;8.40;100.00
44359;BME280;30077;52.474;13.326;2023-02-13T12:05:40;103083.47;;;8.55;100.00
44359;BME280;30077;52.474;13.326;2023-02-13T12:10:40;103082.50;;;8.36;100.00
44359;BME280;30077;52.474;13.326;2023-02-13T12:15:42;103079.88;;;8.43;100.00
44359;BME280;30077;52.474;13.326;2023-02-13T12:20:50;103079.88;;;8.48;100.00
44359;BME280;30077;52.474;13.326;2023-02-13T12:36:14;103076.38;;;8.74;100.00
44359;BME280;30077;52.474;13.326;2023-02-13T12:46:36;103078.16;;;8.65;100.00
44359;BME280;30077;52.474;13.326;2023-02-13T12:57:01;103089.69;;;8.64;100.00
44359;BME280;30077;52.474;13.326;2023-02-13T13:27:32;103071.84;;;8.30;100.00
44359;BME280;30077;52.474;13.326;2023-02-13T13:32:35;103076.25;;;8.26;100.00
44359;BME280;30077;52.474;13.326;2023-02-13T13:37:36;103082.44;;;8.20;100.00
44359;BME280;30077;52.474;13.326;2023-02-13T13:42:46;103069.97;;;8.01;100.00
44359;BME280;30077;52.474;13.326;2023-02-13T13:48:15;103071.78;;;8.11;100.00
44359;BME280;30077;52.474;13.326;2023-02-13T13:53:18;103066.47;;;8.20;100.00
44359;BME280;30077;52.474;13.326;2023-02-13T14:03:38;103064.72;;;8.13;100.00
44359;BME280;30077;52.474;13.326;2023-02-13T14:08:51;103054.00;;;8.01;100.00
44359;BME280;30077;52.474;13.326;2023-02-13T14:13:52;103043.41;;;8.07;100.00
44359;BME280;30077;52.474;13.326;2023-02-13T14:18:54;103054.03;;;8.04;100.00
44359;BME280;30077;52.474;13.326;2023-02-13T14:23:54;103038.94;;;8.00;100.00
44359;BME280;30077;52.474;13.326;2023-02-13T14:29:11;103041.53;;;7.88;100.00
44359;BME280;30077;52.474;13.326;2023-02-13T14:34:19;103033.59;;;7.85;100.00
44359;BME280;30077;52.474;13.326;2023-02-13T14:39:24;103030.06;;;7.96;100.00
44359;BME280;30077;52.474;13.326;2023-02-13T14:44:30;103025.59;;;7.91;100.00
44359;BME280;30077;52.474;13.326;2023-02-13T14:49:34;103016.72;;;7.80;100.00
44359;BME280;30077;52.474;13.326;2023-02-13T14:54:37;103020.16;;;7.60;100.00
44359;BME280;30077;52.474;13.326;2023-02-13T14:59:38;103022.75;;;7.45;100.00
44359;BME280;30077;52.474;13.326;2023-02-13T15:04:41;103011.25;;;7.49;100.00
44359;BME280;30077;52.474;13.326;2023-02-13T15:09:55;103019.25;;;7.55;100.00
44359;BME280;30077;52.474;13.326;2023-02-13T15:14:57;103025.44;;;7.54;100.00
44359;BME280;30077;52.474;13.326;2023-02-13T15:20:22;103015.72;;;7.56;100.00
44359;BME280;30077;52.474;13.326;2023-02-13T15:25:22;102995.34;;;7.52;100.00
44359;BME280;30077;52.474;13.326;2023-02-13T15:30:27;102984.72;;;7.58;100.00
44359;BME280;30077;52.474;13.326;2023-02-13T15:35:29;102995.34;;;7.58;100.00
44359;BME280;30077;52.474;13.326;2023-02-13T15:40:31;102985.59;;;7.51;100.00
44359;BME280;30077;52.474;13.326;2023-02-13T15:45:32;102979.47;;;7.63;100.00
44359;BME280;30077;52.474;13.326;2023-02-13T15:50:35;102980.28;;;7.50;100.00
44359;BME280;30077;52.474;13.326;2023-02-13T15:55:36;102977.59;;;7.45;100.00
44359;BME280;30077;52.474;13.326;2023-02-13T16:00:38;102983.78;;;7.42;100.00
44359;BME280;30077;52.474;13.326;2023-02-13T16:05:39;102969.66;;;7.48;100.00
44359;BME280;30077;52.474;13.326;2023-02-13T16:10:40;102984.63;;;7.34;100.00
44359;BME280;30077;52.474;13.326;2023-02-13T16:15:40;102989.03;;;7.33;100.00
44359;BME280;30077;52.474;13.326;2023-02-13T16:20:41;102995.22;;;7.31;100.00
44359;BME280;30077;52.474;13.326;2023-02-13T16:25:41;102994.34;;;7.32;100.00
44359;BME280;30077;52.474;13.326;2023-02-13T16:30:43;103002.25;;;7.19;100.00
44359;BME280;30077;52.474;13.326;2023-02-13T16:35:44;102998.59;;;7.02;100.00
44359;BME280;30077;52.474;13.326;2023-02-13T16:40:47;103003.03;;;7.08;100.00
44359;BME280;30077;52.474;13.326;2023-02-13T16:45:47;103009.25;;;7.08;100.00
44359;BME280;30077;52.474;13.326;2023-02-13T16:50:53;102990.66;;;7.10;100.00
44359;BME280;30077;52.474;13.326;2023-02-13T16:55:58;102992.44;;;7.09;100.00
44359;BME280;30077;52.474;13.326;2023-02-13T17:01:00;102995.09;;;7.09;100.00
44359;BME280;30077;52.474;13.326;2023-02-13T17:06:01;103000.41;;;7.09;100.00
44359;BME280;30077;52.474;13.326;2023-02-13T17:11:03;103007.44;;;7.07;100.00
44359;BME280;30077;52.474;13.326;2023-02-13T17:16:03;103005.66;;;7.03;100.00
44359;BME280;30077;52.474;13.326;2023-02-13T17:21:04;103017.22;;;7.08;100.00
44359;BME280;30077;52.474;13.326;2023-02-13T17:26:04;103017.19;;;7.07;100.00
44359;BME280;30077;52.474;13.326;2023-02-13T17:31:04;103015.41;;;7.07;100.00
44359;BME280;30077;52.474;13.326;2023-02-13T17:36:08;103021.63;;;7.06;100.00
44359;BME280;30077;52.474;13.326;2023-02-13T17:41:13;103007.44;;;7.01;100.00
44359;BME280;30077;52.474;13.326;2023-02-13T17:46:14;103006.53;;;6.99;100.00
44359;BME280;30077;52.474;13.326;2023-02-13T17:51:15;103014.50;;;7.04;100.00
44359;BME280;30077;52.474;13.326;2023-02-13T17:56:16;103019.78;;;6.99;100.00
44359;BME280;30077;52.474;13.326;2023-02-13T18:01:17;103024.19;;;6.94;100.00
44359;BME280;30077;52.474;13.326;2023-02-13T18:06:17;103022.41;;;6.96;100.00
44359;BME280;30077;52.474;13.326;2023-02-13T18:11:18;103021.53;;;6.94;100.00
44359;BME280;30077;52.474;13.326;2023-02-13T18:16:18;103021.53;;;6.97;100.00
44359;BME280;30077;52.474;13.326;2023-02-13T18:21:21;103014.47;;;6.99;100.00
44359;BME280;30077;52.474;13.326;2023-02-13T18:26:22;103011.00;;;7.06;100.00
44359;BME280;30077;52.474;13.326;2023-02-13T18:31:22;103029.53;;;7.00;100.00
44359;BME280;30077;52.474;13.326;2023-02-13T18:36:22;103017.94;;;6.89;100.00
44359;BME280;30077;52.474;13.326;2023-02-13T18:41:23;103025.06;;;6.96;100.00
44359;BME280;30077;52.474;13.326;2023-02-13T18:46:24;103028.53;;;6.86;100.00
44359;BME280;30077;52.474;13.326;2023-02-13T18:51:24;103024.97;;;6.84;100.00
44359;BME280;30077;52.474;13.326;2023-02-13T18:56:24;103018.69;;;6.74;100.00
44359;BME280;30077;52.474;13.326;2023-02-13T19:01:24;103019.69;;;6.84;100.00
44359;BME280;30077;52.474;13.326;2023-02-13T19:06:25;103013.44;;;6.77;100.00
44359;BME280;30077;52.474;13.326;2023-02-13T19:11:25;103013.38;;;6.71;100.00
44359;BME280;30077;52.474;13.326;2023-02-13T19:16:26;103014.25;;;6.71;100.00
44359;BME280;30077;52.474;13.326;2023-02-13T19:21:28;103012.53;;;6.77;100.00
44359;BME280;30077;52.474;13.326;2023-02-13T19:26:30;103032.88;;;6.76;100.00
44359;BME280;30077;52.474;13.326;2023-02-13T19:31:31;103015.97;;;6.66;100.00
44359;BME280;30077;52.474;13.326;2023-02-13T19:36:31;103023.91;;;6.63;100.00
44359;BME280;30077;52.474;13.326;2023-02-13T19:41:31;103033.75;;;6.77;100.00
44359;BME280;30077;52.474;13.326;2023-02-13T19:46:31;103040.78;;;6.68;100.00
44359;BME280;30077;52.474;13.326;2023-02-13T19:51:32;103042.53;;;6.69;100.00
44359;BME280;30077;52.474;13.326;2023-02-13T19:56:35;103037.22;;;6.66;100.00
44359;BME280;30077;52.474;13.326;2023-02-13T20:01:36;103046.13;;;6.74;100.00
44359;BME280;30077;52.474;13.326;2023-02-13T20:06:36;103046.81;;;6.54;100.00
44359;BME280;30077;52.474;13.326;2023-02-13T20:11:36;103049.50;;;6.58;100.00
44359;BME280;30077;52.474;13.326;2023-02-13T20:16:37;103040.66;;;6.59;100.00
44359;BME280;30077;52.474;13.326;2023-02-13T20:21:38;103041.44;;;6.49;100.00
44359;BME280;30077;52.474;13.326;2023-02-13T20:26:40;103057.41;;;6.52;100.00
44359;BME280;30077;52.474;13.326;2023-02-13T20:31:40;103052.09;;;6.50;100.00
44359;BME280;30077;52.474;13.326;2023-02-13T20:36:40;103058.34;;;6.60;100.00
44359;BME280;30077;52.474;13.326;2023-02-13T20:41:41;103060.91;;;6.49;100.00
44359;BME280;30077;52.474;13.326;2023-02-13T20:46:41;103067.09;;;6.47;100.00
44359;BME280;30077;52.474;13.326;2023-02-13T20:51:41;103069.66;;;6.39;100.00
44359;BME280;30077;52.474;13.326;2023-02-13T20:56:41;103072.31;;;6.41;99.71
44359;BME280;30077;52.474;13.326;2023-02-13T21:01:43;103080.25;;;6.41;99.27
44359;BME280;30077;52.474;13.326;2023-02-13T21:06:45;103093.47;;;6.36;99.55
44359;BME280;30077;52.474;13.326;2023-02-13T21:11:46;103081.91;;;6.31;100.00
44359;BME280;30077;52.474;13.326;2023-02-13T21:16:46;103089.81;;;6.26;99.89
44359;BME280;30077;52.474;13.326;2023-02-13T21:21:46;103091.59;;;6.27;100.00
44359;BME280;30077;52.474;13.326;2023-02-13T21:26:48;103095.16;;;6.30;100.00
44359;BME280;30077;52.474;13.326;2023-02-13T21:31:48;103096.00;;;6.25;100.00
44359;BME280;30077;52.474;13.326;2023-02-13T21:36:50;103091.50;;;6.18;99.98
44359;BME280;30077;52.474;13.326;2023-02-13T21:41:50;103096.69;;;6.09;100.00
44359;BME280;30077;52.474;13.326;2023-02-13T21:46:50;103094.03;;;6.09;100.00
44359;BME280;30077;52.474;13.326;2023-02-13T21:51:50;103095.84;;;6.13;100.00
44359;BME280;30077;52.474;13.326;2023-02-13T21:56:51;103087.84;;;6.07;100.00
44359;BME280;30077;52.474;13.326;2023-02-13T22:01:51;103093.13;;;6.07;100.00
44359;BME280;30077;52.474;13.326;2023-02-13T22:06:53;103097.56;;;6.08;100.00
44359;BME280;30077;52.474;13.326;2023-02-13T22:11:53;103095.84;;;6.12;100.00
44359;BME280;30077;52.474;13.326;2023-02-13T22:16:54;103087.88;;;6.10;100.00
44359;BME280;30077;52.474;13.326;2023-02-13T22:21:54;103104.66;;;6.12;100.00
44359;BME280;30077;52.474;13.326;2023-02-13T22:26:54;103103.66;;;6.02;100.00
44359;BME280;30077;52.474;13.326;2023-02-13T22:31:54;103106.41;;;6.09;99.05
44359;BME280;30077;52.474;13.326;2023-02-13T22:36:54;103104.53;;;6.01;99.91
44359;BME280;30077;52.474;13.326;2023-02-13T22:41:54;103108.09;;;6.05;99.23
44359;BME280;30077;52.474;13.326;2023-02-13T22:46:55;103114.38;;;6.12;99.01
44359;BME280;30077;52.474;13.326;2023-02-13T22:51:55;103117.84;;;6.06;97.61
44359;BME280;30077;52.474;13.326;2023-02-13T22:56:55;103121.41;;;6.08;97.31
44359;BME280;30077;52.474;13.326;2023-02-13T23:01:55;103117.56;;;5.88;97.28
44359;BME280;30077;52.474;13.326;2023-02-13T23:06:55;103113.25;;;5.93;98.02
44359;BME280;30077;52.474;13.326;2023-02-13T23:11:56;103108.75;;;5.89;98.08
44359;BME280;30077;52.474;13.326;2023-02-13T23:17:15;103107.78;;;5.84;99.02
44359;BME280;30077;52.474;13.326;2023-02-13T23:22:34;103105.25;;;5.90;96.74
44359;BME280;30077;52.474;13.326;2023-02-13T23:27:35;103108.75;;;5.89;96.95
44359;BME280;30077;52.474;13.326;2023-02-13T23:32:35;103100.91;;;5.93;96.73
44359;BME280;30077;52.474;13.326;2023-02-13T23:37:35;103108.75;;;5.89;96.66
44359;BME280;30077;52.474;13.326;2023-02-13T23:42:36;103118.50;;;5.91;97.18
44359;BME280;30077;52.474;13.326;2023-02-13T23:47:36;103115.03;;;5.94;96.38
44359;BME280;30077;52.474;13.326;2023-02-13T23:52:36;103121.03;;;5.84;96.56
44359;BME280;30077;52.474;13.326;2023-02-13T23:57:36;103125.44;;;5.82;96.57
